Time;durP1;ratioP1;P1;durP2;ratioP2;P2;SDS_P1;SDS_P2;PMS_P1;PMS_P2;Temp;Humidity;BMP_temperature;BMP_pressure;BME280_temperature;BME280_humidity;BME280_pressure;Samples;Min_cycle;Max_cycle;Signal;HPM_P1;HPM_P2
2021/10/20 00:00:08;;;;;;;10.95;8.68;;;17.10;99.90;;;;;;4993424;28;20663;-90
2021/10/20 00:02:36;;;;;;;9.40;7.53;;;17.10;99.90;;;;;;4993388;28;20218;-89
2021/10/20 00:05:04;;;;;;;9.38;8.25;;;17.10;99.90;;;;;;4975353;28;20233;-90
2021/10/20 00:07:31;;;;;;;10.50;7.47;;;17.10;99.90;;;;;;4975290;28;20199;-90
2021/10/20 00:09:58;;;;;;;8.57;7.78;;;17.00;99.90;;;;;;4993172;28;20206;-90
2021/10/20 00:12:25;;;;;;;9.77;8.00;;;17.00;99.90;;;;;;4993662;28;20211;-90
2021/10/20 00:14:52;;;;;;;11.68;8.23;;;17.00;99.90;;;;;;4988256;28;20586;-87
2021/10/20 00:17:19;;;;;;;8.40;7.00;;;17.10;99.90;;;;;;4974115;28;20197;-90
2021/10/20 00:19:50;;;;;;;11.00;7.63;;;17.10;99.90;;;;;;4972949;28;20238;-93
2021/10/20 00:22:17;;;;;;;11.13;7.55;;;17.00;99.90;;;;;;4973823;28;20205;-89
2021/10/20 00:24:44;;;;;;;10.73;7.32;;;17.10;99.90;;;;;;4988443;28;20231;-90
2021/10/20 00:27:11;;;;;;;11.77;7.90;;;17.00;99.90;;;;;;4993040;28;20210;-90
2021/10/20 00:29:38;;;;;;;8.90;7.97;;;17.00;99.90;;;;;;4987784;28;20213;-91
2021/10/20 00:32:05;;;;;;;9.95;8.02;;;17.00;99.90;;;;;;4974013;28;20227;-90
2021/10/20 00:34:32;;;;;;;10.00;8.65;;;17.00;99.90;;;;;;4973619;28;20201;-89
2021/10/20 00:37:00;;;;;;;9.70;7.78;;;17.00;99.90;;;;;;4990957;28;20215;-91
2021/10/20 00:39:27;;;;;;;10.25;7.88;;;17.00;99.90;;;;;;5001568;28;20208;-88
2021/10/20 00:41:54;;;;;;;10.15;8.65;;;17.00;99.90;;;;;;4997211;28;20214;-89
2021/10/20 00:44:21;;;;;;;11.70;9.00;;;17.00;99.90;;;;;;4993386;28;20220;-89
2021/10/20 00:46:49;;;;;;;10.95;9.02;;;17.00;99.90;;;;;;4977703;28;20297;-92
2021/10/20 00:49:16;;;;;;;11.57;9.32;;;17.10;99.90;;;;;;4972940;28;20205;-90
2021/10/20 00:51:45;;;;;;;13.52;9.50;;;17.10;99.90;;;;;;4973221;28;20495;-89
2021/10/20 00:54:13;;;;;;;12.15;9.73;;;17.10;99.90;;;;;;4987121;28;20238;-91
2021/10/20 00:56:40;;;;;;;12.73;9.15;;;17.10;99.90;;;;;;4977415;28;20208;-91
2021/10/20 00:59:08;;;;;;;12.82;9.57;;;17.20;99.90;;;;;;4969522;28;20208;-89
2021/10/20 01:01:36;;;;;;;12.38;9.50;;;17.20;99.90;;;;;;4990750;28;20243;-92
2021/10/20 01:04:03;;;;;;;16.33;9.73;;;17.20;99.90;;;;;;4991537;28;20250;-91
2021/10/20 01:06:30;;;;;;;15.43;10.32;;;17.20;99.90;;;;;;4988201;28;20213;-89
2021/10/20 01:08:57;;;;;;;12.75;9.57;;;17.20;99.90;;;;;;4972846;28;20208;-91
2021/10/20 01:11:26;;;;;;;16.55;9.95;;;17.20;99.90;;;;;;4972709;28;20205;-90
2021/10/20 01:13:53;;;;;;;15.70;10.02;;;17.20;99.90;;;;;;4972158;28;20204;-89
2021/10/20 01:16:21;;;;;;;18.73;10.40;;;17.20;99.90;;;;;;4973008;28;20208;-89
2021/10/20 01:18:48;;;;;;;17.25;11.30;;;17.20;99.90;;;;;;4972506;28;20221;-91
2021/10/20 01:21:18;;;;;;;14.73;10.13;;;17.10;99.90;;;;;;4973407;28;20196;-89
2021/10/20 01:23:46;;;;;;;17.45;10.73;;;17.10;99.90;;;;;;4972935;28;20597;-91
2021/10/20 01:26:14;;;;;;;15.50;10.68;;;17.10;99.90;;;;;;4971894;28;20651;-91
2021/10/20 01:28:41;;;;;;;18.05;10.90;;;17.10;99.90;;;;;;4972336;28;20217;-88
2021/10/20 01:31:08;;;;;;;15.95;11.35;;;17.10;99.90;;;;;;4973796;28;20955;-89
2021/10/20 01:33:35;;;;;;;13.65;10.43;;;17.10;99.90;;;;;;4990889;28;20218;-90
2021/10/20 01:36:02;;;;;;;16.45;11.65;;;17.10;99.90;;;;;;4992238;28;20588;-89
2021/10/20 01:38:30;;;;;;;17.85;10.35;;;17.10;99.90;;;;;;4994357;28;20208;-88
2021/10/20 01:40:57;;;;;;;15.93;11.02;;;17.10;99.90;;;;;;4995537;28;20557;-89
2021/10/20 01:43:24;;;;;;;14.52;10.90;;;17.10;99.90;;;;;;4995753;28;20222;-88
2021/10/20 01:45:51;;;;;;;13.98;11.23;;;17.10;99.90;;;;;;4995179;28;20648;-90
2021/10/20 01:48:18;;;;;;;17.17;11.50;;;17.10;99.90;;;;;;4995516;28;20214;-90
2021/10/20 01:50:45;;;;;;;19.90;11.60;;;17.10;99.90;;;;;;4979339;28;20219;-86
2021/10/20 01:53:12;;;;;;;19.95;12.05;;;17.10;99.90;;;;;;4976019;28;20216;-88
2021/10/20 01:55:40;;;;;;;16.58;11.70;;;17.10;99.90;;;;;;4976809;28;20215;-89
2021/10/20 01:58:07;;;;;;;16.17;12.18;;;17.10;99.90;;;;;;4977253;28;20195;-88
2021/10/20 02:00:34;;;;;;;18.67;11.63;;;17.10;99.90;;;;;;4990828;28;20211;-90
2021/10/20 02:03:01;;;;;;;21.48;13.27;;;17.10;99.90;;;;;;4995942;28;20200;-86
2021/10/20 02:05:28;;;;;;;13.95;10.80;;;17.10;99.90;;;;;;5000251;28;20235;-91
2021/10/20 02:07:54;;;;;;;19.25;12.77;;;17.10;99.90;;;;;;4990977;28;20213;-92
2021/10/20 02:10:21;;;;;;;20.77;12.95;;;17.10;99.90;;;;;;4979443;28;20201;-92
2021/10/20 02:12:52;;;;;;;18.73;12.63;;;17.00;99.90;;;;;;4976444;28;20235;-90
2021/10/20 02:15:19;;;;;;;18.45;12.52;;;17.00;99.90;;;;;;4976049;28;20292;-91
2021/10/20 02:17:46;;;;;;;20.67;13.10;;;16.90;99.90;;;;;;4975780;28;20240;-88
2021/10/20 02:20:14;;;;;;;20.10;13.32;;;16.90;99.90;;;;;;4975549;28;20209;-91
2021/10/20 02:22:42;;;;;;;18.08;12.65;;;16.90;99.90;;;;;;4975280;28;20223;-90
2021/10/20 02:25:10;;;;;;;22.38;13.20;;;16.90;99.90;;;;;;4975312;28;20231;-90
2021/10/20 02:27:37;;;;;;;16.52;13.20;;;16.90;99.90;;;;;;4974543;28;20727;-90
2021/10/20 02:30:08;;;;;;;21.50;12.75;;;16.90;99.90;;;;;;4972801;28;20214;-92
2021/10/20 02:32:35;;;;;;;19.63;12.40;;;16.90;99.90;;;;;;4994357;28;20211;-90
2021/10/20 02:35:04;;;;;;;20.20;13.50;;;16.90;99.90;;;;;;4994198;28;20204;-92
2021/10/20 02:37:31;;;;;;;16.15;12.40;;;16.80;99.90;;;;;;4978653;28;20208;-90
2021/10/20 02:39:58;;;;;;;19.60;13.07;;;16.90;99.90;;;;;;4974861;28;20502;-91
2021/10/20 02:42:25;;;;;;;19.27;13.93;;;16.90;99.90;;;;;;4974320;28;20208;-89
2021/10/20 02:44:52;;;;;;;21.65;13.90;;;16.90;99.90;;;;;;4974928;28;20228;-91
2021/10/20 02:47:21;;;;;;;21.63;13.65;;;16.90;99.90;;;;;;4975351;28;20244;-88
2021/10/20 02:49:48;;;;;;;21.13;13.55;;;16.90;99.90;;;;;;4975645;28;20197;-88
2021/10/20 02:52:14;;;;;;;19.70;13.43;;;16.90;99.90;;;;;;4994994;28;20196;-90
2021/10/20 02:54:41;;;;;;;20.15;13.90;;;16.90;99.90;;;;;;4995385;28;20831;-89
2021/10/20 02:57:08;;;;;;;21.30;13.15;;;16.90;99.90;;;;;;4982380;28;20204;-90
2021/10/20 02:59:35;;;;;;;16.48;13.32;;;16.90;99.90;;;;;;4982404;28;20232;-89
2021/10/20 03:02:02;;;;;;;18.88;12.95;;;16.90;99.90;;;;;;4980108;28;20201;-91
2021/10/20 03:04:30;;;;;;;17.50;12.18;;;16.90;99.90;;;;;;4986533;28;20209;-88
2021/10/20 03:06:57;;;;;;;16.52;12.75;;;16.90;99.90;;;;;;4985158;28;20213;-92
2021/10/20 03:09:24;;;;;;;18.83;11.82;;;16.90;99.90;;;;;;4993804;28;20200;-91
2021/10/20 03:11:50;;;;;;;17.58;12.95;;;16.90;99.90;;;;;;4993889;28;20204;-89
2021/10/20 03:14:17;;;;;;;18.33;12.88;;;16.90;99.90;;;;;;4989618;28;20620;-91
2021/10/20 03:16:44;;;;;;;18.65;12.05;;;16.90;99.90;;;;;;4974705;28;20204;-91
2021/10/20 03:19:11;;;;;;;20.05;11.85;;;16.90;99.90;;;;;;4977656;28;20236;-90
2021/10/20 03:21:39;;;;;;;17.20;12.50;;;16.90;99.90;;;;;;4994629;28;20206;-90
2021/10/20 03:24:07;;;;;;;18.13;12.40;;;16.90;99.90;;;;;;4993937;28;20218;-88
2021/10/20 03:26:34;;;;;;;17.08;12.88;;;16.90;99.90;;;;;;4992099;28;20338;-89
2021/10/20 03:29:01;;;;;;;18.70;13.07;;;16.90;99.90;;;;;;4992317;28;20303;-88
2021/10/20 03:31:28;;;;;;;17.55;12.75;;;16.90;99.90;;;;;;4995926;28;20230;-88
2021/10/20 03:33:55;;;;;;;19.63;13.20;;;16.90;99.90;;;;;;4998679;28;20512;-88
2021/10/20 03:36:22;;;;;;;21.15;13.70;;;16.90;99.90;;;;;;4985919;28;20319;-91
2021/10/20 03:38:50;;;;;;;18.52;14.23;;;16.90;99.90;;;;;;4973680;28;20211;-88
2021/10/20 03:41:17;;;;;;;21.80;14.18;;;16.90;99.90;;;;;;4973358;28;20227;-89
2021/10/20 03:43:44;;;;;;;19.13;13.80;;;16.90;99.90;;;;;;4972545;28;20216;-87
2021/10/20 03:46:11;;;;;;;17.48;13.02;;;17.00;99.90;;;;;;4981875;28;20234;-89
2021/10/20 03:48:38;;;;;;;17.45;13.15;;;17.00;99.90;;;;;;4993251;28;20291;-85
2021/10/20 03:51:05;;;;;;;21.27;13.80;;;17.00;99.90;;;;;;4985453;28;20857;-87
2021/10/20 03:53:32;;;;;;;18.08;13.60;;;17.00;99.90;;;;;;4971990;28;20255;-88
2021/10/20 03:56:01;;;;;;;20.55;14.93;;;17.00;99.90;;;;;;4973196;28;20207;-89
2021/10/20 03:58:28;;;;;;;20.98;15.25;;;17.00;99.90;;;;;;4971036;28;20219;-89
2021/10/20 04:00:57;;;;;;;22.05;15.07;;;17.00;99.90;;;;;;4970934;28;20201;-88
2021/10/20 04:03:24;;;;;;;18.67;15.32;;;17.10;99.90;;;;;;4976325;28;20200;-89
2021/10/20 04:05:50;;;;;;;18.33;15.13;;;17.00;99.90;;;;;;4992273;28;20647;-91
2021/10/20 04:08:17;;;;;;;21.65;14.65;;;17.10;99.90;;;;;;4992545;28;20203;-87
2021/10/20 04:10:44;;;;;;;19.00;15.73;;;17.10;99.90;;;;;;4991299;28;20204;-87
2021/10/20 04:13:12;;;;;;;20.02;15.68;;;17.10;99.90;;;;;;4989678;28;20212;-87
2021/10/20 04:15:39;;;;;;;25.95;16.48;;;17.10;99.90;;;;;;4991799;28;20200;-92
2021/10/20 04:18:07;;;;;;;24.55;15.73;;;17.10;99.90;;;;;;4991292;28;20231;-88
2021/10/20 04:20:34;;;;;;;25.05;16.98;;;17.00;99.90;;;;;;4993047;28;20204;-91
2021/10/20 04:23:00;;;;;;;22.73;16.98;;;17.00;99.90;;;;;;4992638;28;20200;-91
2021/10/20 04:25:27;;;;;;;21.02;16.85;;;16.80;99.90;;;;;;4991251;28;20234;-92
2021/10/20 04:27:54;;;;;;;21.98;17.13;;;16.80;99.90;;;;;;4991871;28;20214;-89
2021/10/20 04:30:24;;;;;;;22.15;16.50;;;16.70;99.90;;;;;;4993174;28;20197;-93
2021/10/20 04:32:51;;;;;;;27.48;18.25;;;16.60;99.90;;;;;;4992209;28;20192;-92
2021/10/20 04:35:22;;;;;;;27.30;17.17;;;16.60;99.90;;;;;;4992078;28;20211;-92
2021/10/20 04:37:49;;;;;;;28.98;17.55;;;16.60;99.90;;;;;;4992287;28;20516;-89
2021/10/20 04:40:16;;;;;;;23.30;15.85;;;16.60;99.90;;;;;;4992793;28;20241;-90
2021/10/20 04:42:44;;;;;;;22.20;16.38;;;16.50;99.90;;;;;;4991724;28;20291;-92
2021/10/20 04:45:11;;;;;;;26.27;17.60;;;16.60;99.90;;;;;;4973655;28;20218;-93
2021/10/20 04:47:39;;;;;;;28.33;17.58;;;16.60;99.90;;;;;;4973256;28;20821;-91
2021/10/20 04:50:09;;;;;;;26.45;16.88;;;16.60;99.90;;;;;;4973394;28;20215;-88
2021/10/20 04:52:37;;;;;;;30.83;16.88;;;16.60;99.90;;;;;;4974198;28;20303;-89
2021/10/20 04:55:05;;;;;;;32.08;17.27;;;16.60;99.90;;;;;;4973499;28;20666;-93
2021/10/20 04:57:32;;;;;;;35.97;18.98;;;16.70;99.90;;;;;;4973847;28;20608;-89
2021/10/20 04:59:59;;;;;;;28.15;17.17;;;16.70;99.90;;;;;;4977893;28;20205;-88
2021/10/20 05:02:25;;;;;;;35.60;18.15;;;16.70;99.90;;;;;;4980196;28;20211;-90
2021/10/20 05:04:54;;;;;;;35.10;20.75;;;16.80;99.90;;;;;;4976030;28;20204;-90
2021/10/20 05:07:21;;;;;;;33.72;19.92;;;16.80;99.90;;;;;;4975749;28;20966;-92
2021/10/20 05:09:49;;;;;;;33.70;19.88;;;16.80;99.90;;;;;;4976968;28;20614;-90
2021/10/20 05:12:16;;;;;;;35.75;19.48;;;16.80;99.90;;;;;;4976224;28;20208;-92
2021/10/20 05:14:43;;;;;;;29.92;19.40;;;16.80;99.90;;;;;;4976850;28;20207;-94
2021/10/20 05:17:10;;;;;;;37.55;20.80;;;16.80;99.90;;;;;;4977379;28;20215;-89
2021/10/20 05:19:37;;;;;;;39.42;19.65;;;16.80;99.90;;;;;;4976992;28;20231;-93
2021/10/20 05:22:07;;;;;;;33.40;19.40;;;16.80;99.90;;;;;;4975798;28;20208;-90
2021/10/20 05:24:35;;;;;;;40.67;21.75;;;16.70;99.90;;;;;;4975416;28;20239;-93
2021/10/20 05:27:02;;;;;;;38.10;22.17;;;16.70;99.90;;;;;;4976806;28;20509;-93
2021/10/20 05:29:32;;;;;;;49.45;22.70;;;16.70;99.90;;;;;;4975705;28;20192;-92
2021/10/20 05:31:59;;;;;;;39.83;23.98;;;16.60;99.90;;;;;;4975780;28;20232;-88
2021/10/20 05:34:26;;;;;;;42.17;23.90;;;16.50;99.90;;;;;;4976932;28;20208;-91
2021/10/20 05:36:53;;;;;;;39.67;23.00;;;16.40;99.90;;;;;;4976781;28;20207;-93
2021/10/20 05:39:21;;;;;;;45.10;23.48;;;16.30;99.90;;;;;;4977075;28;20213;-89
2021/10/20 05:41:50;;;;;;;37.03;21.83;;;16.20;99.90;;;;;;4977156;28;20214;-90
2021/10/20 05:44:17;;;;;;;40.08;21.90;;;16.20;99.90;;;;;;4977348;28;20200;-92
2021/10/20 05:46:45;;;;;;;41.45;22.88;;;16.10;99.90;;;;;;4982223;28;20227;-93
2021/10/20 05:49:12;;;;;;;41.03;23.15;;;16.00;99.90;;;;;;4975461;28;20236;-88
2021/10/20 05:51:39;;;;;;;42.47;22.60;;;16.00;99.90;;;;;;4978795;28;20207;-88
2021/10/20 05:54:06;;;;;;;38.47;21.80;;;16.00;99.90;;;;;;4979066;28;20247;-90
2021/10/20 05:56:35;;;;;;;42.35;24.05;;;15.90;99.90;;;;;;4983574;28;20211;-89
2021/10/20 05:59:03;;;;;;;39.83;22.55;;;15.90;99.90;;;;;;4976430;28;20204;-89
2021/10/20 06:01:31;;;;;;;36.17;21.83;;;15.80;99.90;;;;;;4977351;28;20617;-90
2021/10/20 06:03:58;;;;;;;51.10;23.40;;;15.80;99.90;;;;;;4987385;28;20601;-92
2021/10/20 06:06:26;;;;;;;41.53;22.15;;;15.80;99.90;;;;;;4994252;28;20227;-90
2021/10/20 06:08:53;;;;;;;40.38;21.35;;;15.70;99.90;;;;;;4996784;28;20314;-90
2021/10/20 06:11:20;;;;;;;41.60;21.60;;;15.70;99.90;;;;;;4999198;28;20266;-86
2021/10/20 06:13:49;;;;;;;37.72;20.90;;;15.70;99.90;;;;;;4980703;28;20295;-92
2021/10/20 06:16:16;;;;;;;41.95;21.27;;;15.70;99.90;;;;;;4973062;28;20212;-91
2021/10/20 06:18:43;;;;;;;35.42;21.52;;;15.70;99.90;;;;;;4973346;28;20219;-89
2021/10/20 06:21:10;;;;;;;35.20;21.10;;;15.70;99.90;;;;;;4992082;28;20608;-87
2021/10/20 06:23:37;;;;;;;37.92;19.95;;;15.70;99.90;;;;;;4990392;28;20201;-87
2021/10/20 06:26:03;;;;;;;39.10;20.83;;;15.70;99.90;;;;;;4973900;28;20240;-87
2021/10/20 06:28:31;;;;;;;38.03;19.88;;;15.70;99.90;;;;;;4977520;28;20216;-86
2021/10/20 06:30:59;;;;;;;36.53;19.85;;;15.70;99.90;;;;;;4975236;28;20211;-85
2021/10/20 06:33:26;;;;;;;33.95;18.73;;;15.80;99.90;;;;;;4992049;28;20218;-86
2021/10/20 06:35:54;;;;;;;41.83;20.50;;;15.80;99.90;;;;;;4997770;28;20211;-90
2021/10/20 06:38:21;;;;;;;38.35;20.48;;;15.80;99.90;;;;;;5001416;28;20295;-86
2021/10/20 06:40:49;;;;;;;34.85;19.45;;;15.80;99.90;;;;;;5001736;28;20207;-89
2021/10/20 06:43:16;;;;;;;31.35;18.88;;;15.80;99.90;;;;;;5003216;28;20227;-89
2021/10/20 06:45:43;;;;;;;33.75;19.48;;;15.90;99.90;;;;;;4992873;28;20232;-86
2021/10/20 06:48:12;;;;;;;43.75;19.13;;;16.00;99.90;;;;;;4978172;28;20213;-90
2021/10/20 06:50:40;;;;;;;39.92;18.88;;;16.00;99.90;;;;;;4987760;28;20207;-87
2021/10/20 06:53:07;;;;;;;33.03;18.75;;;16.00;99.90;;;;;;4979721;28;20209;-85
2021/10/20 06:55:37;;;;;;;37.28;19.02;;;16.00;99.90;;;;;;4980741;28;20201;-87
2021/10/20 06:58:04;;;;;;;32.78;19.88;;;16.00;99.90;;;;;;4980345;28;20275;-91
2021/10/20 07:00:31;;;;;;;38.13;18.98;;;16.00;99.90;;;;;;4981286;28;20282;-84
2021/10/20 07:02:58;;;;;;;31.83;17.92;;;16.00;99.90;;;;;;4975014;28;20204;-88
2021/10/20 07:05:27;;;;;;;38.45;18.45;;;16.00;99.90;;;;;;4975325;28;20851;-88
2021/10/20 07:07:54;;;;;;;28.77;17.98;;;16.10;99.90;;;;;;4990112;28;20834;-90
2021/10/20 07:10:20;;;;;;;34.72;17.42;;;16.00;99.90;;;;;;4990506;28;20192;-83
2021/10/20 07:12:49;;;;;;;33.75;17.55;;;16.00;99.90;;;;;;4989873;28;20196;-88
2021/10/20 07:15:16;;;;;;;30.90;17.90;;;16.00;99.90;;;;;;4987664;28;20209;-87
2021/10/20 07:17:44;;;;;;;26.80;16.52;;;16.00;99.90;;;;;;4993030;23;20235;-87
2021/10/20 07:20:11;;;;;;;26.33;16.88;;;16.00;99.90;;;;;;5000057;28;20310;-91
2021/10/20 07:22:43;;;;;;;27.38;15.50;;;16.00;99.90;;;;;;5017477;28;20203;-92
2021/10/20 07:25:13;;;;;;;23.27;14.32;;;16.00;99.90;;;;;;5012815;28;20266;-90
2021/10/20 07:27:40;;;;;;;21.40;14.50;;;16.00;99.90;;;;;;5012541;28;20262;-95
2021/10/20 07:30:11;;;;;;;19.02;14.18;;;16.00;99.90;;;;;;5025666;28;20209;-92
2021/10/20 07:32:40;;;;;;;19.42;13.57;;;16.00;99.90;;;;;;5018366;28;20218;-94
2021/10/20 07:35:08;;;;;;;17.02;13.27;;;16.00;99.90;;;;;;5025782;28;20222;-91
2021/10/20 07:37:35;;;;;;;17.65;13.93;;;16.10;99.90;;;;;;5026007;28;20198;-91
2021/10/20 07:40:06;;;;;;;15.77;12.90;;;16.10;99.90;;;;;;5025316;28;20203;-90
2021/10/20 07:42:36;;;;;;;17.00;12.63;;;16.10;99.90;;;;;;5023418;28;20203;-92
2021/10/20 07:45:03;;;;;;;15.48;12.73;;;16.10;99.90;;;;;;5012756;28;20204;-96
2021/10/20 07:47:30;;;;;;;15.93;12.32;;;16.10;99.90;;;;;;5013259;28;20238;-89
2021/10/20 07:49:57;;;;;;;13.18;11.23;;;16.10;99.90;;;;;;5027376;28;20206;-84
2021/10/20 07:52:25;;;;;;;14.32;11.30;;;16.10;99.90;;;;;;5021440;28;20214;-84
2021/10/20 07:54:53;;;;;;;13.88;10.48;;;16.10;99.90;;;;;;5017207;28;20817;-84
2021/10/20 07:57:22;;;;;;;16.60;11.52;;;16.10;99.90;;;;;;5014114;28;20211;-91
2021/10/20 07:59:48;;;;;;;15.02;11.40;;;16.10;99.90;;;;;;5013260;28;20203;-88
2021/10/20 08:02:15;;;;;;;13.27;10.60;;;16.10;99.90;;;;;;5024831;22;20293;-89
2021/10/20 08:04:42;;;;;;;13.68;11.02;;;16.10;99.90;;;;;;5011239;28;20207;-92
2021/10/20 08:07:09;;;;;;;14.40;10.43;;;16.10;99.90;;;;;;5011654;28;20227;-88
2021/10/20 08:09:37;;;;;;;15.77;9.80;;;16.10;99.90;;;;;;5011608;28;20223;-89
2021/10/20 08:12:05;;;;;;;14.55;10.02;;;16.20;99.90;;;;;;4992143;28;20236;-93
2021/10/20 08:14:34;;;;;;;11.90;10.45;;;16.20;99.90;;;;;;4990645;28;20196;-87
2021/10/20 08:17:01;;;;;;;11.05;9.82;;;16.20;99.90;;;;;;4996977;28;20207;-86
2021/10/20 08:19:29;;;;;;;12.15;9.23;;;16.30;99.90;;;;;;5010230;28;20230;-88
2021/10/20 08:21:56;;;;;;;12.70;9.70;;;16.20;99.90;;;;;;5003425;28;20237;-84
2021/10/20 08:24:23;;;;;;;14.15;9.60;;;16.20;99.90;;;;;;5009485;28;20215;-84
2021/10/20 08:26:50;;;;;;;12.55;10.38;;;16.20;99.90;;;;;;5008506;28;20318;-85
2021/10/20 08:29:16;;;;;;;15.57;10.68;;;16.20;99.90;;;;;;5008055;28;20289;-90
2021/10/20 08:31:45;;;;;;;15.98;9.95;;;16.20;99.90;;;;;;5006531;28;20226;-90
2021/10/20 08:34:11;;;;;;;13.73;10.25;;;16.20;99.90;;;;;;5008499;28;20223;-84
2021/10/20 08:36:38;;;;;;;14.57;9.85;;;16.20;99.90;;;;;;5009244;28;20211;-87
2021/10/20 08:39:12;;;;;;;14.07;9.82;;;16.20;99.90;;;;;;5009243;28;20264;-86
2021/10/20 08:41:39;;;;;;;10.43;9.23;;;16.20;99.90;;;;;;5014747;22;20243;-84
2021/10/20 08:44:06;;;;;;;13.93;9.88;;;16.30;99.90;;;;;;5006924;28;20218;-84
2021/10/20 08:46:34;;;;;;;12.30;9.93;;;16.30;99.90;;;;;;5006552;28;20239;-85
2021/10/20 08:49:04;;;;;;;13.35;9.65;;;16.30;99.90;;;;;;5008696;28;20210;-85
2021/10/20 08:51:31;;;;;;;16.27;9.45;;;16.40;99.90;;;;;;5007909;28;20619;-85
2021/10/20 08:53:59;;;;;;;13.32;8.60;;;16.40;99.90;;;;;;5009117;28;20226;-83
2021/10/20 08:56:26;;;;;;;13.82;9.57;;;16.50;99.90;;;;;;5009507;28;20207;-87
2021/10/20 08:58:53;;;;;;;14.20;9.63;;;16.60;99.90;;;;;;5005043;28;20937;-84
2021/10/20 09:01:20;;;;;;;16.17;9.23;;;16.70;99.90;;;;;;5008197;28;20215;-84
2021/10/20 09:03:47;;;;;;;14.98;9.70;;;16.70;99.90;;;;;;5009998;28;20203;-86
2021/10/20 09:06:15;;;;;;;15.60;8.85;;;16.70;99.90;;;;;;5009277;28;20203;-85
2021/10/20 09:08:44;;;;;;;12.75;8.45;;;16.80;99.90;;;;;;5009453;28;20973;-88
2021/10/20 09:11:24;;;;;;;12.57;9.15;;;16.80;99.90;;;;;;5009019;28;20515;-85
2021/10/20 09:13:52;;;;;;;16.85;8.65;;;16.80;99.90;;;;;;5006527;28;20284;-91
2021/10/20 09:16:21;;;;;;;13.27;9.52;;;16.80;99.90;;;;;;5004900;28;20214;-87
2021/10/20 09:18:48;;;;;;;14.90;9.52;;;16.80;99.90;;;;;;5020142;28;20230;-83
2021/10/20 09:21:16;;;;;;;12.48;8.95;;;16.90;99.90;;;;;;5022977;28;20783;-85
2021/10/20 09:23:43;;;;;;;17.13;9.65;;;16.90;99.90;;;;;;5027107;28;20225;-86
2021/10/20 09:26:10;;;;;;;15.55;9.25;;;16.90;99.90;;;;;;5015227;28;20199;-87
2021/10/20 09:28:39;;;;;;;15.00;9.88;;;16.90;99.90;;;;;;5016339;28;20226;-85
2021/10/20 09:31:07;;;;;;;13.10;8.60;;;16.90;99.90;;;;;;5019398;28;20238;-89
2021/10/20 09:33:37;;;;;;;12.60;9.25;;;16.90;99.90;;;;;;5025446;28;20210;-85
2021/10/20 09:36:04;;;;;;;12.55;8.60;;;16.90;99.90;;;;;;5019490;28;20211;-88
2021/10/20 09:38:40;;;;;;;16.42;8.50;;;16.90;99.90;;;;;;5014872;28;20492;-92
2021/10/20 09:41:09;;;;;;;13.73;8.43;;;16.90;99.90;;;;;;5018863;28;20677;-92
2021/10/20 09:43:43;;;;;;;15.88;8.35;;;16.90;99.90;;;;;;5016046;28;20219;-85
2021/10/20 09:46:10;;;;;;;12.82;8.57;;;17.00;99.90;;;;;;5026645;28;20217;-90
2021/10/20 09:48:41;;;;;;;16.65;8.73;;;17.00;99.90;;;;;;5012100;28;20238;-85
2021/10/20 09:51:11;;;;;;;16.70;8.38;;;17.00;99.90;;;;;;5013039;28;20612;-83
2021/10/20 09:53:41;;;;;;;14.90;8.70;;;17.00;99.90;;;;;;5014006;28;20218;-90
2021/10/20 09:56:22;;;;;;;17.85;8.40;;;17.00;99.90;;;;;;5014958;28;20215;-82
2021/10/20 09:58:52;;;;;;;19.17;8.45;;;17.00;99.90;;;;;;5014207;28;20207;-92
2021/10/20 10:01:21;;;;;;;16.65;8.57;;;17.10;99.90;;;;;;5017053;28;20653;-90
2021/10/20 10:03:48;;;;;;;20.85;8.52;;;17.10;99.90;;;;;;5022096;28;20210;-88
2021/10/20 10:06:19;;;;;;;19.30;8.73;;;17.10;99.90;;;;;;5022452;28;20308;-84
2021/10/20 10:08:47;;;;;;;18.95;8.30;;;17.10;99.90;;;;;;5022764;28;20230;-85
2021/10/20 10:11:15;;;;;;;16.80;7.78;;;17.10;99.90;;;;;;5018573;28;20210;-82
2021/10/20 10:13:47;;;;;;;17.85;8.48;;;17.10;99.90;;;;;;5016904;28;20210;-85
2021/10/20 10:16:16;;;;;;;18.65;9.77;;;17.20;99.90;;;;;;5018576;28;20337;-84
2021/10/20 10:18:43;;;;;;;21.98;8.75;;;17.20;99.90;;;;;;5022094;28;20234;-85
2021/10/20 10:21:29;;;;;;;18.67;9.25;;;17.20;99.90;;;;;;5013049;28;20195;-84
2021/10/20 10:23:59;;;;;;;19.60;8.38;;;17.30;99.90;;;;;;5019135;28;20977;-82
2021/10/20 10:26:26;;;;;;;20.88;9.07;;;17.30;99.90;;;;;;5015979;28;20221;-87
2021/10/20 10:29:07;;;;;;;25.80;9.68;;;17.30;99.90;;;;;;5004621;28;20234;-89
2021/10/20 10:31:36;;;;;;;22.25;9.40;;;17.30;99.90;;;;;;5020239;28;20218;-86
2021/10/20 10:34:03;;;;;;;22.42;8.75;;;17.30;99.90;;;;;;5026552;28;20207;-88
2021/10/20 10:36:30;;;;;;;18.05;8.35;;;17.30;99.90;;;;;;5029292;28;20293;-84
2021/10/20 10:39:08;;;;;;;22.45;9.35;;;17.30;99.90;;;;;;5019718;28;20195;-87
2021/10/20 10:41:37;;;;;;;31.10;10.82;;;17.40;99.90;;;;;;5022351;28;20235;-85
2021/10/20 10:44:19;;;;;;;26.90;10.40;;;17.40;99.90;;;;;;5021411;28;20207;-82
2021/10/20 10:47:15;;;;;;;32.08;9.82;;;17.40;99.90;;;;;;5018427;28;20207;-90
2021/10/20 10:49:45;;;;;;;22.48;10.25;;;17.50;99.90;;;;;;5028861;28;20213;-86
2021/10/20 10:52:32;;;;;;;24.65;10.68;;;17.50;99.90;;;;;;5021499;28;20202;-84
2021/10/20 10:55:20;;;;;;;19.48;9.77;;;17.50;99.90;;;;;;5023455;28;20255;-86
2021/10/20 10:57:52;;;;;;;25.65;10.15;;;17.60;99.90;;;;;;5027974;28;20218;-88
2021/10/20 11:00:43;;;;;;;25.70;9.00;;;17.60;99.90;;;;;;5011664;28;20233;-88
2021/10/20 11:03:26;;;;;;;23.15;8.98;;;17.70;99.90;;;;;;5008838;28;20258;-85
2021/10/20 11:05:57;;;;;;;25.00;10.27;;;17.60;99.90;;;;;;5021570;28;20306;-89
2021/10/20 11:08:25;;;;;;;28.05;10.63;;;17.60;99.90;;;;;;5011537;28;20235;-87
2021/10/20 11:10:54;;;;;;;22.85;9.93;;;17.70;99.90;;;;;;5021324;28;20213;-84
2021/10/20 11:13:21;;;;;;;35.47;9.73;;;17.70;99.90;;;;;;5011251;28;20918;-90
2021/10/20 11:15:49;;;;;;;28.05;9.10;;;17.70;99.90;;;;;;5013371;28;20601;-84
2021/10/20 11:18:24;;;;;;;31.58;9.70;;;17.70;99.90;;;;;;5017555;28;20239;-93
2021/10/20 11:20:54;;;;;;;25.42;9.40;;;17.70;99.90;;;;;;5018378;28;20210;-85
2021/10/20 11:23:21;;;;;;;25.00;9.18;;;17.80;99.90;;;;;;5013471;28;20218;-87
2021/10/20 11:25:49;;;;;;;26.38;9.35;;;17.70;99.90;;;;;;5020833;28;20219;-89
2021/10/20 11:28:20;;;;;;;25.38;9.52;;;17.70;99.90;;;;;;5016954;28;20949;-86
2021/10/20 11:30:47;;;;;;;33.17;9.00;;;17.70;99.90;;;;;;5026370;28;20210;-87
2021/10/20 11:33:16;;;;;;;28.75;10.05;;;17.70;99.90;;;;;;5014692;28;20616;-84
2021/10/20 11:35:44;;;;;;;26.67;9.43;;;17.70;99.90;;;;;;5011177;28;20617;-82
2021/10/20 11:38:13;;;;;;;28.20;9.35;;;17.70;99.90;;;;;;5019612;28;20203;-88
2021/10/20 11:40:43;;;;;;;25.45;9.10;;;17.70;99.90;;;;;;5022573;28;20222;-88
2021/10/20 11:43:16;;;;;;;32.92;9.93;;;17.80;99.90;;;;;;5024419;28;20681;-87
2021/10/20 11:45:45;;;;;;;27.27;10.13;;;17.80;99.90;;;;;;5023632;28;20633;-89
2021/10/20 11:48:14;;;;;;;31.38;9.50;;;17.90;99.90;;;;;;5023478;28;20238;-91
2021/10/20 11:50:41;;;;;;;28.55;8.45;;;17.90;99.90;;;;;;5021180;28;20213;-90
2021/10/20 11:53:08;;;;;;;26.85;9.05;;;18.00;99.90;;;;;;5028026;28;20685;-88
2021/10/20 11:55:42;;;;;;;24.90;9.15;;;18.00;99.90;;;;;;5017547;28;20253;-89
2021/10/20 11:58:17;;;;;;;25.05;9.02;;;18.10;99.90;;;;;;5017184;28;20218;-84
2021/10/20 12:00:50;;;;;;;28.25;9.80;;;18.10;99.90;;;;;;5017671;28;20231;-87
2021/10/20 12:03:17;;;;;;;32.15;8.93;;;18.20;99.90;;;;;;5023080;28;20203;-87
2021/10/20 12:05:44;;;;;;;23.00;8.48;;;18.10;99.90;;;;;;5022997;28;20298;-85
2021/10/20 12:08:11;;;;;;;26.15;8.68;;;18.20;99.90;;;;;;5018926;28;20650;-84
2021/10/20 12:10:39;;;;;;;27.83;8.52;;;18.10;99.90;;;;;;5007166;28;20741;-81
2021/10/20 12:13:07;;;;;;;23.33;8.65;;;18.10;99.90;;;;;;5014188;28;20215;-84
2021/10/20 12:15:41;;;;;;;21.90;8.05;;;18.00;99.90;;;;;;5024368;28;21018;-86
2021/10/20 12:18:14;;;;;;;22.55;8.57;;;18.00;99.90;;;;;;5020326;28;20654;-88
2021/10/20 12:20:41;;;;;;;27.65;8.40;;;18.00;99.90;;;;;;5026163;28;20198;-88
2021/10/20 12:23:09;;;;;;;28.45;8.63;;;18.00;99.90;;;;;;5026566;28;20206;-88
2021/10/20 12:25:36;;;;;;;28.33;8.68;;;18.00;99.90;;;;;;5009033;28;20230;-85
2021/10/20 12:28:03;;;;;;;32.88;8.18;;;18.00;99.90;;;;;;5024951;28;20230;-87
2021/10/20 12:30:30;;;;;;;20.02;7.13;;;17.90;99.90;;;;;;5017386;28;20199;-87
2021/10/20 12:33:07;;;;;;;27.35;8.20;;;18.00;99.90;;;;;;5018073;28;20593;-86
2021/10/20 12:35:35;;;;;;;29.85;8.73;;;18.00;99.90;;;;;;5024497;28;20293;-87